createdAt,value
2018-01-21T00:00:17.038Z,2.05
2018-01-21T00:01:17.016Z,2.03
2018-01-21T00:02:16.994Z,2.06
2018-01-21T00:03:16.961Z,2.00
2018-01-21T00:04:16.938Z,2.06
2018-01-21T00:05:16.913Z,2.00
2018-01-21T00:06:16.898Z,2.09
2018-01-21T00:07:16.868Z,2.05
2018-01-21T00:08:16.847Z,1.99
2018-01-21T00:09:16.827Z,2.16
2018-01-21T00:10:16.801Z,2.14
2018-01-21T00:11:16.776Z,2.10
2018-01-21T00:12:16.753Z,2.12
2018-01-21T00:13:16.731Z,2.17
2018-01-21T00:14:16.706Z,2.14
2018-01-21T00:15:16.686Z,2.20
2018-01-21T00:16:16.670Z,2.18
2018-01-21T00:17:16.645Z,2.18
2018-01-21T00:18:16.616Z,2.16
2018-01-21T00:19:16.596Z,2.20
2018-01-21T00:20:16.569Z,2.23
2018-01-21T00:21:16.554Z,2.25
2018-01-21T00:22:16.525Z,2.23
2018-01-21T00:23:16.507Z,2.21
2018-01-21T00:24:16.483Z,2.28
2018-01-21T00:25:16.465Z,2.28
2018-01-21T00:26:16.440Z,2.21
2018-01-21T00:27:16.412Z,2.23
2018-01-21T00:28:16.396Z,2.24
2018-01-21T00:29:16.376Z,2.31
2018-01-21T00:30:16.345Z,2.34
2018-01-21T00:31:16.324Z,2.36
2018-01-21T00:32:16.305Z,2.35
2018-01-21T00:33:16.277Z,2.38
2018-01-21T00:34:16.260Z,2.43
2018-01-21T00:35:16.238Z,2.43
2018-01-21T00:36:16.208Z,2.34
2018-01-21T00:37:16.189Z,2.48
2018-01-21T00:38:16.166Z,2.42
2018-01-21T00:39:16.140Z,2.48
2018-01-21T00:40:16.119Z,2.46
2018-01-21T00:41:16.100Z,2.45
2018-01-21T00:42:16.076Z,2.48
2018-01-21T00:43:16.055Z,2.59
2018-01-21T00:44:16.035Z,2.60
2018-01-21T00:45:16.005Z,2.56
2018-01-21T00:46:15.991Z,2.59
2018-01-21T00:47:15.965Z,2.61
2018-01-21T00:48:15.946Z,2.61
2018-01-21T00:49:15.916Z,2.57
2018-01-21T00:50:15.899Z,2.60
2018-01-21T00:51:15.872Z,2.64
2018-01-21T00:52:15.848Z,2.60
2018-01-21T00:53:15.829Z,2.60
2018-01-21T00:54:15.808Z,2.66
2018-01-21T00:55:15.787Z,2.64
2018-01-21T00:56:15.762Z,2.67
2018-01-21T00:57:15.744Z,2.69
2018-01-21T00:58:15.714Z,2.69
2018-01-21T00:59:15.698Z,2.69
2018-01-21T01:00:15.673Z,2.64
2018-01-21T01:01:15.649Z,2.67
2018-01-21T01:02:15.625Z,2.67
2018-01-21T01:03:15.609Z,2.67
2018-01-21T01:04:15.581Z,2.60
2018-01-21T01:05:15.575Z,2.63
2018-01-21T01:06:15.535Z,2.60
2018-01-21T01:07:15.515Z,2.61
2018-01-21T01:08:15.495Z,2.71
2018-01-21T01:09:15.468Z,2.61
2018-01-21T01:10:15.511Z,2.54
2018-01-21T01:11:15.427Z,2.53
2018-01-21T01:12:15.405Z,2.57
2018-01-21T01:13:15.376Z,2.45
2018-01-21T01:14:15.357Z,2.54
2018-01-21T01:15:15.337Z,2.53
2018-01-21T01:16:15.320Z,2.53
2018-01-21T01:17:15.287Z,2.53
2018-01-21T01:18:15.266Z,2.60
2018-01-21T01:19:15.249Z,2.48
2018-01-21T01:20:15.223Z,2.53
2018-01-21T01:21:15.198Z,2.48
2018-01-21T01:22:15.175Z,2.45
2018-01-21T01:23:15.156Z,2.49
2018-01-21T01:24:15.135Z,2.48
2018-01-21T01:25:15.111Z,2.46
2018-01-21T01:26:15.085Z,2.42
2018-01-21T01:27:15.066Z,2.48
2018-01-21T01:28:15.054Z,2.49
2018-01-21T01:29:15.019Z,2.52
2018-01-21T01:30:14.996Z,2.49
2018-01-21T01:31:14.974Z,2.49
2018-01-21T01:32:14.960Z,2.46
2018-01-21T01:33:14.928Z,2.45
2018-01-21T01:34:14.908Z,2.42
2018-01-21T01:35:14.886Z,2.45
2018-01-21T01:36:14.863Z,2.46
2018-01-21T01:37:14.853Z,2.52
2018-01-21T01:38:14.817Z,2.49
2018-01-21T01:39:14.792Z,2.53
2018-01-21T01:40:14.769Z,2.43
2018-01-21T01:41:14.759Z,2.48
2018-01-21T01:42:14.725Z,2.57
2018-01-21T01:43:14.709Z,2.52
2018-01-21T01:44:14.684Z,2.54
2018-01-21T01:45:14.663Z,2.59
2018-01-21T01:46:14.641Z,2.48
2018-01-21T01:47:14.617Z,2.57
2018-01-21T01:48:14.596Z,2.45
2018-01-21T01:49:14.571Z,2.57
2018-01-21T01:50:14.546Z,2.60
2018-01-21T01:51:14.523Z,2.56
2018-01-21T01:52:14.506Z,2.60
2018-01-21T01:53:14.495Z,2.56
2018-01-21T01:54:14.458Z,2.52
2018-01-21T01:55:14.435Z,2.53
2018-01-21T01:56:14.413Z,2.60
2018-01-21T01:57:14.388Z,2.67
2018-01-21T01:58:14.367Z,2.63
2018-01-21T01:59:14.348Z,2.66
2018-01-21T02:00:14.325Z,2.67
2018-01-21T02:01:14.339Z,2.64
2018-01-21T02:02:14.277Z,2.66
2018-01-21T02:03:14.254Z,2.69
2018-01-21T02:04:14.234Z,2.67
2018-01-21T02:05:14.214Z,2.67
2018-01-21T02:06:14.186Z,2.66
2018-01-21T02:07:14.166Z,2.69
2018-01-21T02:08:14.146Z,2.69
2018-01-21T02:09:14.116Z,2.72
2018-01-21T02:10:14.095Z,2.72
2018-01-21T02:11:14.072Z,2.71
2018-01-21T02:12:14.055Z,2.77
2018-01-21T02:13:14.039Z,2.64
2018-01-21T02:14:14.002Z,2.69
2018-01-21T02:15:13.982Z,2.72
2018-01-21T02:16:13.957Z,2.69
2018-01-21T02:17:13.936Z,2.75
2018-01-21T02:18:13.913Z,2.72
2018-01-21T02:19:13.889Z,2.69
2018-01-21T02:20:13.864Z,2.74
2018-01-21T02:21:13.841Z,2.67
2018-01-21T02:22:13.826Z,2.75
2018-01-21T02:23:13.795Z,2.74
2018-01-21T02:24:13.773Z,2.63
2018-01-21T02:25:13.754Z,2.69
2018-01-21T02:26:13.734Z,2.77
2018-01-21T02:27:13.706Z,2.77
2018-01-21T02:28:13.681Z,2.67
2018-01-21T02:29:13.659Z,2.75
2018-01-21T02:30:13.636Z,2.71
2018-01-21T02:31:13.612Z,2.74
2018-01-21T02:32:13.593Z,2.66
2018-01-21T02:33:13.566Z,2.72
2018-01-21T02:34:13.544Z,2.77
2018-01-21T02:35:13.519Z,2.69
2018-01-21T02:36:13.501Z,2.74
2018-01-21T02:37:13.476Z,2.69
2018-01-21T02:38:13.451Z,2.66
2018-01-21T02:39:13.439Z,2.71
2018-01-21T02:40:13.406Z,2.74
2018-01-21T02:41:13.380Z,2.69
2018-01-21T02:42:13.364Z,2.60
2018-01-21T02:43:13.336Z,2.57
2018-01-21T02:44:13.316Z,2.54
2018-01-21T02:45:13.291Z,2.60
2018-01-21T02:46:13.266Z,2.52
2018-01-21T02:47:13.245Z,2.46
2018-01-21T02:48:13.222Z,2.48
2018-01-21T02:49:13.205Z,2.43
2018-01-21T02:50:13.175Z,2.46
2018-01-21T02:51:13.154Z,2.42
2018-01-21T02:52:13.138Z,2.36
2018-01-21T02:53:13.109Z,2.41
2018-01-21T02:54:13.092Z,2.30
2018-01-21T02:55:13.073Z,2.43
2018-01-21T02:56:13.038Z,2.36
2018-01-21T02:57:13.021Z,2.35
2018-01-21T02:58:12.993Z,2.27
2018-01-21T02:59:12.968Z,2.28
2018-01-21T03:00:12.945Z,2.28
2018-01-21T03:01:12.926Z,2.21
2018-01-21T03:02:12.900Z,2.28
2018-01-21T03:03:12.880Z,2.25
2018-01-21T03:04:12.856Z,2.23
2018-01-21T03:05:12.833Z,2.34
2018-01-21T03:06:12.810Z,2.24
2018-01-21T03:07:12.789Z,2.23
2018-01-21T03:08:12.768Z,2.31
2018-01-21T03:09:12.744Z,2.20
2018-01-21T03:10:12.715Z,2.25
2018-01-21T03:11:12.699Z,2.23
2018-01-21T03:12:12.671Z,2.28
2018-01-21T03:13:12.647Z,2.25
2018-01-21T03:14:12.631Z,2.20
2018-01-21T03:15:12.612Z,2.23
2018-01-21T03:16:12.579Z,2.21
2018-01-21T03:17:12.563Z,2.21
2018-01-21T03:18:12.536Z,2.30
2018-01-21T03:19:12.511Z,2.30
2018-01-21T03:20:12.491Z,2.35
2018-01-21T03:21:12.469Z,2.30
2018-01-21T03:22:12.444Z,2.30
2018-01-21T03:23:12.423Z,2.30
2018-01-21T03:24:12.414Z,2.36
2018-01-21T03:25:12.375Z,2.38
2018-01-21T03:26:12.352Z,2.25
2018-01-21T03:27:12.335Z,2.25
2018-01-21T03:28:12.310Z,2.30
2018-01-21T03:29:12.289Z,2.24
2018-01-21T03:30:12.262Z,2.23
2018-01-21T03:31:12.243Z,2.23
2018-01-21T03:32:12.219Z,2.24
2018-01-21T03:33:12.196Z,2.30
2018-01-21T03:34:12.172Z,2.20
2018-01-21T03:35:12.150Z,2.18
2018-01-21T03:36:12.126Z,2.14
2018-01-21T03:37:12.104Z,2.21
2018-01-21T03:38:12.080Z,2.21
2018-01-21T03:39:12.059Z,2.14
2018-01-21T03:40:12.038Z,2.12
2018-01-21T03:41:12.014Z,2.18
2018-01-21T03:42:11.992Z,2.10
2018-01-21T03:43:11.972Z,2.06
2018-01-21T03:44:11.946Z,2.00
2018-01-21T03:45:11.920Z,1.99
2018-01-21T03:46:11.910Z,1.98
2018-01-21T03:47:11.876Z,1.98
2018-01-21T03:48:11.855Z,2.05
2018-01-21T03:49:11.837Z,2.03
2018-01-21T03:50:11.811Z,1.98
2018-01-21T03:51:11.785Z,1.87
2018-01-21T03:52:11.764Z,1.98
2018-01-21T03:53:11.746Z,1.90
2018-01-21T03:54:11.716Z,2.02
2018-01-21T03:55:11.697Z,1.90
2018-01-21T03:56:11.669Z,1.91
2018-01-21T03:57:11.652Z,1.98
2018-01-21T03:58:11.632Z,1.84
2018-01-21T03:59:11.602Z,2.02
2018-01-21T04:00:11.586Z,2.02
2018-01-21T04:01:11.556Z,1.99
2018-01-21T04:02:11.532Z,1.90
2018-01-21T04:03:11.507Z,1.86
2018-01-21T04:04:11.484Z,1.98
2018-01-21T04:05:11.466Z,1.99
2018-01-21T04:06:11.444Z,2.00
2018-01-21T04:07:11.421Z,1.86
2018-01-21T04:08:11.395Z,2.00
2018-01-21T04:09:11.372Z,2.02
2018-01-21T04:10:11.350Z,1.86
2018-01-21T04:11:11.326Z,1.86
2018-01-21T04:12:11.302Z,1.87
2018-01-21T04:13:11.278Z,1.80
2018-01-21T04:14:11.255Z,1.84
2018-01-21T04:15:11.236Z,1.79
2018-01-21T04:16:11.212Z,1.65
2018-01-21T04:17:11.189Z,1.77
2018-01-21T04:18:11.165Z,1.68
2018-01-21T04:19:11.142Z,1.66
2018-01-21T04:20:11.119Z,1.66
2018-01-21T04:21:11.099Z,1.77
2018-01-21T04:22:11.079Z,1.69
2018-01-21T04:23:11.060Z,1.66
2018-01-21T04:24:11.027Z,1.68
2018-01-21T04:25:11.003Z,1.66
2018-01-21T04:26:10.985Z,1.68
2018-01-21T04:27:10.961Z,1.66
2018-01-21T04:28:10.936Z,1.70
2018-01-21T04:29:10.916Z,1.69
2018-01-21T04:30:10.893Z,1.66
2018-01-21T04:31:10.865Z,1.68
2018-01-21T04:32:10.841Z,1.70
2018-01-21T04:33:10.828Z,1.72
2018-01-21T04:34:10.798Z,1.69
2018-01-21T04:35:10.776Z,1.69
2018-01-21T04:36:10.755Z,1.69
2018-01-21T04:37:10.732Z,1.63
2018-01-21T04:38:10.705Z,1.59
2018-01-21T04:39:10.686Z,1.66
2018-01-21T04:40:10.660Z,1.59
2018-01-21T04:41:10.636Z,1.62
2018-01-21T04:42:10.615Z,1.60
2018-01-21T04:43:10.596Z,1.59
2018-01-21T04:44:10.570Z,1.55
2018-01-21T04:45:10.546Z,1.48
2018-01-21T04:46:10.524Z,1.48
2018-01-21T04:47:10.501Z,1.50
2018-01-21T04:48:10.482Z,1.54
2018-01-21T04:49:10.453Z,1.54
2018-01-21T04:50:10.429Z,1.50
2018-01-21T04:51:10.411Z,1.48
2018-01-21T04:52:10.386Z,1.48
2018-01-21T04:53:10.366Z,1.42
2018-01-21T04:54:10.338Z,1.52
2018-01-21T04:55:10.315Z,1.47
2018-01-21T04:56:10.293Z,1.48
2018-01-21T04:57:10.269Z,1.52
2018-01-21T04:58:10.245Z,1.45
2018-01-21T04:59:10.224Z,1.44
2018-01-21T05:00:10.199Z,1.41
2018-01-21T05:01:10.187Z,1.47
2018-01-21T05:02:10.153Z,1.40
2018-01-21T05:03:10.138Z,1.41
2018-01-21T05:04:10.109Z,1.34
2018-01-21T05:05:10.087Z,1.33
2018-01-21T05:06:10.064Z,1.34
2018-01-21T05:07:10.040Z,1.37
2018-01-21T05:08:10.015Z,1.36
2018-01-21T05:09:09.993Z,1.40
2018-01-21T05:10:09.968Z,1.36
2018-01-21T05:11:09.947Z,1.34
2018-01-21T05:12:09.925Z,1.30
2018-01-21T05:13:09.906Z,1.37
2018-01-21T05:14:09.879Z,1.41
2018-01-21T05:15:09.855Z,1.30
2018-01-21T05:16:09.834Z,1.30
2018-01-21T05:17:09.810Z,1.33
2018-01-21T05:18:09.786Z,1.37
2018-01-21T05:19:09.762Z,1.36
2018-01-21T05:20:09.739Z,1.34
2018-01-21T05:21:09.716Z,1.44
2018-01-21T05:22:09.691Z,1.34
2018-01-21T05:23:09.676Z,1.37
2018-01-21T05:24:09.650Z,1.37
2018-01-21T05:25:09.625Z,1.33
2018-01-21T05:26:09.604Z,1.41
2018-01-21T05:27:09.580Z,1.34
2018-01-21T05:28:09.555Z,1.32
2018-01-21T05:29:09.534Z,1.37
2018-01-21T05:30:09.516Z,1.30
2018-01-21T05:31:09.485Z,1.30
2018-01-21T05:32:09.466Z,1.40
2018-01-21T05:33:09.440Z,1.33
2018-01-21T05:34:09.421Z,1.30
2018-01-21T05:35:09.396Z,1.37
2018-01-21T05:36:09.373Z,1.41
2018-01-21T05:37:09.346Z,1.37
2018-01-21T05:38:09.324Z,1.37
2018-01-21T05:39:09.302Z,1.40
2018-01-21T05:40:09.275Z,1.32
2018-01-21T05:41:09.254Z,1.37
2018-01-21T05:42:09.258Z,1.36
2018-01-21T05:43:09.216Z,1.42
2018-01-21T05:44:09.182Z,1.34
2018-01-21T05:45:09.166Z,1.27
2018-01-21T05:46:09.138Z,1.29
2018-01-21T05:47:09.118Z,1.27
2018-01-21T05:48:09.089Z,1.36
2018-01-21T05:49:09.072Z,1.29
2018-01-21T05:50:09.046Z,1.23
2018-01-21T05:51:09.020Z,1.22
2018-01-21T05:52:08.999Z,1.29
2018-01-21T05:53:08.976Z,1.30
2018-01-21T05:54:08.953Z,1.23
2018-01-21T05:55:08.929Z,1.30
2018-01-21T05:56:08.905Z,1.24
2018-01-21T05:57:08.882Z,1.20
2018-01-21T05:58:08.864Z,1.20
2018-01-21T05:59:08.836Z,1.30
2018-01-21T06:00:08.813Z,1.34
2018-01-21T06:01:08.791Z,1.29
2018-01-21T06:02:08.765Z,1.33
2018-01-21T06:03:08.743Z,1.36
2018-01-21T06:04:08.722Z,1.32
2018-01-21T06:05:08.698Z,1.41
2018-01-21T06:06:08.675Z,1.36
2018-01-21T06:07:08.650Z,1.37
2018-01-21T06:08:08.626Z,1.34
2018-01-21T06:09:08.607Z,1.34
2018-01-21T06:10:08.591Z,1.30
2018-01-21T06:11:08.556Z,1.41
2018-01-21T06:12:08.592Z,1.34
2018-01-21T06:13:08.516Z,1.37
2018-01-21T06:14:08.490Z,1.34
2018-01-21T06:15:08.465Z,1.34
2018-01-21T06:16:08.446Z,1.33
2018-01-21T06:17:08.428Z,1.20
2018-01-21T06:18:08.394Z,1.20
2018-01-21T06:19:08.379Z,1.14
2018-01-21T06:20:08.350Z,1.18
2018-01-21T06:21:08.326Z,1.16
2018-01-21T06:22:08.301Z,1.18
2018-01-21T06:23:08.279Z,1.29
2018-01-21T06:24:08.263Z,1.18
2018-01-21T06:25:08.236Z,1.26
2018-01-21T06:26:08.210Z,1.29
2018-01-21T06:27:08.186Z,1.26
2018-01-21T06:28:08.165Z,1.22
2018-01-21T06:29:08.144Z,1.20
2018-01-21T06:30:08.120Z,1.23
2018-01-21T06:31:08.097Z,1.29
2018-01-21T06:32:08.073Z,1.32
2018-01-21T06:33:08.046Z,1.27
2018-01-21T06:34:08.025Z,1.36
2018-01-21T06:35:08.004Z,1.36
2018-01-21T06:36:07.977Z,1.29
2018-01-21T06:37:07.956Z,1.27
2018-01-21T06:38:07.936Z,1.42
2018-01-21T06:39:07.912Z,1.33
2018-01-21T06:40:07.889Z,1.41
2018-01-21T06:41:07.866Z,1.40
2018-01-21T06:42:07.847Z,1.34
2018-01-21T06:43:07.818Z,1.30
2018-01-21T06:44:07.794Z,1.32
2018-01-21T06:45:07.776Z,1.34
2018-01-21T06:46:07.743Z,1.37
2018-01-21T06:47:07.720Z,1.37
2018-01-21T06:48:07.699Z,1.32
2018-01-21T06:49:07.677Z,1.36
2018-01-21T06:50:07.651Z,1.33
2018-01-21T06:51:07.627Z,1.33
2018-01-21T06:52:07.603Z,1.34
2018-01-21T06:53:07.581Z,1.52
2018-01-21T06:54:07.564Z,1.36
2018-01-21T06:55:07.536Z,1.40
2018-01-21T06:56:07.514Z,1.40
2018-01-21T06:57:07.492Z,1.36
2018-01-21T06:58:07.466Z,1.44
2018-01-21T06:59:07.450Z,1.40
2018-01-21T07:00:07.418Z,1.47
2018-01-21T07:01:07.396Z,1.41
2018-01-21T07:02:07.373Z,1.40
2018-01-21T07:03:07.349Z,1.45
2018-01-21T07:04:07.326Z,1.40
2018-01-21T07:05:07.300Z,1.41
2018-01-21T07:06:07.279Z,1.44
2018-01-21T07:07:07.255Z,1.47
2018-01-21T07:08:07.231Z,1.44
2018-01-21T07:09:07.212Z,1.34
2018-01-21T07:10:07.193Z,1.36
2018-01-21T07:11:07.167Z,1.34
2018-01-21T07:12:07.142Z,1.37
2018-01-21T07:13:07.116Z,1.37
2018-01-21T07:14:07.093Z,1.42
2018-01-21T07:15:07.068Z,1.37
2018-01-21T07:16:07.045Z,1.32
2018-01-21T07:17:07.025Z,1.29
2018-01-21T07:18:07.000Z,1.33
2018-01-21T07:19:06.976Z,1.32
2018-01-21T07:20:06.952Z,1.33
2018-01-21T07:21:06.930Z,1.33
2018-01-21T07:22:06.912Z,1.37
2018-01-21T07:23:06.892Z,1.33
2018-01-21T07:24:06.865Z,1.47
2018-01-21T07:25:06.837Z,1.42
2018-01-21T07:26:06.843Z,1.42
2018-01-21T07:27:06.796Z,1.44
2018-01-21T07:28:06.772Z,1.41
2018-01-21T07:29:06.745Z,1.41
2018-01-21T07:30:06.726Z,1.51
2018-01-21T07:31:06.700Z,1.52
2018-01-21T07:32:06.679Z,1.48
2018-01-21T07:33:06.651Z,1.44
2018-01-21T07:34:06.629Z,1.36
2018-01-21T07:35:06.605Z,1.50
2018-01-21T07:36:06.580Z,1.47
2018-01-21T07:37:06.559Z,1.51
2018-01-21T07:38:06.539Z,1.41
2018-01-21T07:39:06.518Z,1.48
2018-01-21T07:40:06.495Z,1.54
2018-01-21T07:41:06.465Z,1.45
2018-01-21T07:42:06.446Z,1.59
2018-01-21T07:43:06.423Z,1.44
2018-01-21T07:44:06.393Z,1.47
2018-01-21T07:45:06.373Z,1.45
2018-01-21T07:46:06.349Z,1.47
2018-01-21T07:47:06.330Z,1.44
2018-01-21T07:48:06.302Z,1.54
2018-01-21T07:49:06.279Z,1.54
2018-01-21T07:50:06.263Z,1.48
2018-01-21T07:51:06.232Z,1.50
2018-01-21T07:52:06.210Z,1.50
2018-01-21T07:53:06.194Z,1.51
2018-01-21T07:54:06.177Z,1.52
2018-01-21T07:55:06.143Z,1.54
2018-01-21T07:56:06.114Z,1.63
2018-01-21T07:57:06.097Z,1.62
2018-01-21T07:58:06.073Z,1.66
2018-01-21T07:59:06.046Z,1.63
2018-01-21T08:00:06.022Z,1.66
2018-01-21T08:01:06.002Z,1.60
2018-01-21T08:02:05.979Z,1.68
2018-01-21T08:03:05.954Z,1.66
2018-01-21T08:04:05.929Z,1.66
2018-01-21T08:05:05.905Z,1.68
2018-01-21T08:06:05.889Z,1.62
2018-01-21T08:07:05.864Z,1.66
2018-01-21T08:08:05.841Z,1.60
2018-01-21T08:09:05.813Z,1.60
2018-01-21T08:10:05.792Z,1.52
2018-01-21T08:11:05.773Z,1.55
2018-01-21T08:12:05.750Z,1.55
2018-01-21T08:13:05.724Z,1.58
2018-01-21T08:14:05.701Z,1.52
2018-01-21T08:15:05.677Z,1.60
2018-01-21T08:16:05.652Z,1.54
2018-01-21T08:17:05.628Z,1.60
2018-01-21T08:18:05.606Z,1.59
2018-01-21T08:19:05.585Z,1.59
2018-01-21T08:20:05.563Z,1.70
2018-01-21T08:21:05.536Z,1.70
2018-01-21T08:22:05.516Z,1.72
2018-01-21T08:23:05.494Z,1.65
2018-01-21T08:24:05.472Z,1.68
2018-01-21T08:25:05.445Z,1.72
2018-01-21T08:26:05.422Z,1.76
2018-01-21T08:27:05.405Z,1.80
2018-01-21T08:28:05.379Z,1.73
2018-01-21T08:29:05.356Z,1.81
2018-01-21T08:30:05.336Z,1.80
2018-01-21T08:31:05.312Z,1.80
2018-01-21T08:32:05.285Z,1.76
2018-01-21T08:33:05.263Z,1.73
2018-01-21T08:34:05.240Z,1.80
2018-01-21T08:35:05.216Z,1.79
2018-01-21T08:36:05.196Z,1.83
2018-01-21T08:37:05.184Z,1.79
2018-01-21T08:38:05.152Z,1.87
2018-01-21T08:39:05.136Z,1.84
2018-01-21T08:40:05.106Z,1.83
2018-01-21T08:41:05.076Z,1.86
2018-01-21T08:42:05.057Z,1.87
2018-01-21T08:43:05.033Z,1.86
2018-01-21T08:44:05.009Z,1.93
2018-01-21T08:45:04.985Z,1.91
2018-01-21T08:46:04.962Z,1.84
2018-01-21T08:47:04.945Z,1.88
2018-01-21T08:48:04.917Z,2.05
2018-01-21T08:49:04.897Z,1.98
2018-01-21T08:50:04.875Z,1.87
2018-01-21T08:51:04.847Z,1.99
2018-01-21T08:52:04.833Z,2.05
2018-01-21T08:53:04.811Z,1.98
2018-01-21T08:54:04.782Z,2.03
2018-01-21T08:55:04.755Z,1.98
2018-01-21T08:56:04.735Z,1.99
2018-01-21T08:57:04.714Z,1.99
2018-01-21T08:58:04.685Z,2.00
2018-01-21T08:59:04.668Z,2.00
2018-01-21T09:00:04.674Z,2.09
2018-01-21T09:01:04.621Z,2.05
2018-01-21T09:02:04.598Z,2.12
2018-01-21T09:03:04.573Z,2.16
2018-01-21T09:04:04.558Z,2.14
2018-01-21T09:05:04.525Z,2.14
2018-01-21T09:06:04.501Z,2.16
2018-01-21T09:07:04.489Z,2.18
2018-01-21T09:08:04.456Z,2.23
2018-01-21T09:09:04.438Z,2.21
2018-01-21T09:10:04.416Z,2.25
2018-01-21T09:11:04.389Z,2.23
2018-01-21T09:12:04.368Z,2.31
2018-01-21T09:13:04.341Z,2.20
2018-01-21T09:14:04.328Z,2.23
2018-01-21T09:15:04.297Z,2.18
2018-01-21T09:16:04.271Z,2.24
2018-01-21T09:17:04.251Z,2.30
2018-01-21T09:18:04.233Z,2.23
2018-01-21T09:19:04.231Z,2.28
2018-01-21T09:20:04.180Z,2.21
2018-01-21T09:21:04.159Z,2.34
2018-01-21T09:22:04.139Z,2.24
2018-01-21T09:23:04.110Z,2.27
2018-01-21T09:24:04.086Z,2.25
2018-01-21T09:25:04.065Z,2.23
2018-01-21T09:26:04.041Z,2.30
2018-01-21T09:27:04.017Z,2.23
2018-01-21T09:28:03.993Z,2.27
2018-01-21T09:29:03.972Z,2.31
2018-01-21T09:30:03.957Z,2.31
2018-01-21T09:31:03.929Z,2.30
2018-01-21T09:32:03.913Z,2.30
2018-01-21T09:33:03.885Z,2.35
2018-01-21T09:34:03.864Z,2.31
2018-01-21T09:35:03.833Z,2.25
2018-01-21T09:36:03.812Z,2.28
2018-01-21T09:37:03.796Z,2.28
2018-01-21T09:38:03.816Z,2.34
2018-01-21T09:39:03.739Z,2.30
2018-01-21T09:40:03.718Z,2.30
2018-01-21T09:41:03.700Z,2.36
2018-01-21T09:42:03.679Z,2.42
2018-01-21T09:43:03.656Z,2.59
2018-01-21T09:44:03.630Z,2.46
2018-01-21T09:45:03.600Z,2.52
2018-01-21T09:46:03.585Z,2.48
2018-01-21T09:47:03.566Z,2.48
2018-01-21T09:48:03.533Z,2.45
2018-01-21T09:49:03.514Z,2.49
2018-01-21T09:50:03.496Z,2.48
2018-01-21T09:51:03.466Z,2.59
2018-01-21T09:52:03.444Z,2.59
2018-01-21T09:53:03.428Z,2.53
2018-01-21T09:54:03.399Z,2.63
2018-01-21T09:55:03.380Z,2.69
2018-01-21T09:56:03.360Z,2.67
2018-01-21T09:57:03.381Z,2.74
2018-01-21T09:58:03.303Z,2.72
2018-01-21T09:59:03.280Z,2.84
2018-01-21T10:00:03.256Z,2.75
2018-01-21T10:01:03.232Z,2.74
2018-01-21T10:02:03.222Z,2.75
2018-01-21T10:03:03.200Z,2.78
2018-01-21T10:04:03.168Z,2.79
2018-01-21T10:05:03.147Z,2.81
2018-01-21T10:06:03.122Z,2.84
2018-01-21T10:07:03.109Z,2.77
2018-01-21T10:08:03.082Z,2.79
2018-01-21T10:09:03.065Z,2.84
2018-01-21T10:10:03.035Z,2.85
2018-01-21T10:11:03.005Z,2.77
2018-01-21T10:12:02.990Z,2.85
2018-01-21T10:13:02.966Z,2.82
2018-01-21T10:14:02.935Z,2.81
2018-01-21T10:15:02.914Z,2.90
2018-01-21T10:16:02.890Z,2.95
2018-01-21T10:17:02.867Z,2.79
2018-01-21T10:18:02.845Z,2.81
2018-01-21T10:19:02.826Z,2.85
2018-01-21T10:20:02.807Z,2.77
2018-01-21T10:21:02.774Z,2.84
2018-01-21T10:22:02.754Z,2.89
2018-01-21T10:23:02.738Z,2.93
2018-01-21T10:24:02.710Z,2.97
2018-01-21T10:25:02.687Z,2.89
2018-01-21T10:26:02.662Z,2.96
2018-01-21T10:27:02.644Z,2.95
2018-01-21T10:28:02.621Z,3.03
2018-01-21T10:29:02.605Z,2.96
2018-01-21T10:30:02.577Z,3.10
2018-01-21T10:31:02.561Z,3.10
2018-01-21T10:32:02.534Z,3.13
2018-01-21T10:33:02.506Z,3.14
2018-01-21T10:34:02.492Z,3.20
2018-01-21T10:35:02.465Z,3.21
2018-01-21T10:36:02.438Z,3.18
2018-01-21T10:37:02.426Z,3.23
2018-01-21T10:38:02.417Z,3.29
2018-01-21T10:39:02.387Z,3.18
2018-01-21T10:40:02.346Z,3.23
2018-01-21T10:41:02.322Z,3.23
2018-01-21T10:42:02.305Z,3.24
2018-01-21T10:43:02.277Z,3.29
2018-01-21T10:44:02.274Z,3.35
2018-01-21T10:45:02.232Z,3.35
2018-01-21T10:46:02.209Z,3.36
2018-01-21T10:47:02.184Z,3.31
2018-01-21T10:48:02.174Z,3.29
2018-01-21T10:49:02.140Z,3.32
2018-01-21T10:50:02.127Z,3.39
2018-01-21T10:51:02.106Z,3.26
2018-01-21T10:52:02.074Z,3.36
2018-01-21T10:53:02.048Z,3.31
2018-01-21T10:54:02.034Z,3.36
2018-01-21T10:55:02.006Z,3.40
2018-01-21T10:56:01.990Z,3.45
2018-01-21T10:57:01.967Z,3.50
2018-01-21T10:58:01.950Z,3.35
2018-01-21T10:59:01.912Z,3.35
2018-01-21T11:00:01.891Z,3.31
2018-01-21T11:01:01.867Z,3.39
2018-01-21T11:02:01.853Z,3.51
2018-01-21T11:03:01.824Z,3.45
2018-01-21T11:04:01.801Z,3.40
2018-01-21T11:05:01.780Z,3.35
2018-01-21T11:06:01.756Z,3.35
2018-01-21T11:07:01.737Z,3.39
2018-01-21T11:08:01.715Z,3.32
2018-01-21T11:09:01.696Z,3.32
2018-01-21T11:10:01.666Z,3.32
2018-01-21T11:11:01.641Z,3.33
2018-01-21T11:12:01.624Z,3.33
2018-01-21T11:13:01.610Z,3.31
2018-01-21T11:14:01.573Z,3.35
2018-01-21T11:15:01.550Z,3.36
2018-01-21T11:16:01.534Z,3.42
2018-01-21T11:17:01.506Z,3.43
2018-01-21T11:18:01.484Z,3.43
2018-01-21T11:19:01.466Z,3.43
2018-01-21T11:20:01.437Z,3.42
2018-01-21T11:21:01.422Z,3.45
2018-01-21T11:22:01.393Z,3.50
2018-01-21T11:23:01.374Z,3.42
2018-01-21T11:24:01.346Z,3.47
2018-01-21T11:25:01.323Z,3.43
2018-01-21T11:26:01.304Z,3.50
2018-01-21T11:27:01.281Z,3.50
2018-01-21T11:28:01.264Z,3.50
2018-01-21T11:29:01.234Z,3.45
2018-01-21T11:30:01.217Z,3.50
2018-01-21T11:31:01.197Z,3.52
2018-01-21T11:32:01.167Z,3.47
2018-01-21T11:33:01.144Z,3.50
2018-01-21T11:34:01.120Z,3.48
2018-01-21T11:35:01.097Z,3.54
2018-01-21T11:36:01.077Z,3.57
2018-01-21T11:37:01.063Z,3.66
2018-01-21T11:38:01.034Z,3.60
2018-01-21T11:39:01.011Z,3.66
2018-01-21T11:40:00.987Z,3.70
2018-01-21T11:41:00.968Z,3.68
2018-01-21T11:42:00.941Z,3.75
2018-01-21T11:43:00.921Z,3.72
2018-01-21T11:44:00.898Z,3.73
2018-01-21T11:45:00.875Z,3.75
2018-01-21T11:46:00.852Z,3.76
2018-01-21T11:47:00.832Z,3.76
2018-01-21T11:48:00.804Z,3.75
2018-01-21T11:49:00.786Z,3.79
2018-01-21T11:50:00.763Z,3.69
2018-01-21T11:51:00.741Z,3.72
2018-01-21T11:52:00.719Z,3.76
2018-01-21T11:53:00.693Z,3.72
2018-01-21T11:54:00.673Z,3.73
2018-01-21T11:55:00.656Z,3.76
2018-01-21T11:56:00.626Z,3.83
2018-01-21T11:57:00.609Z,3.79
2018-01-21T11:58:00.587Z,3.80
2018-01-21T11:59:00.565Z,3.75
2018-01-21T12:00:00.541Z,3.70
2018-01-21T12:01:00.516Z,3.73
2018-01-21T12:02:00.495Z,3.72
2018-01-21T12:03:00.470Z,3.73
2018-01-21T12:04:00.446Z,3.72
2018-01-21T12:05:00.430Z,3.70
2018-01-21T12:06:00.406Z,3.73
2018-01-21T12:07:00.388Z,3.76
2018-01-21T12:08:00.366Z,3.76
2018-01-21T12:09:00.336Z,3.65
2018-01-21T12:10:00.316Z,3.65
2018-01-21T12:11:00.300Z,3.70
2018-01-21T12:12:00.276Z,3.69
2018-01-21T12:13:00.251Z,3.61
2018-01-21T12:14:00.230Z,3.68
2018-01-21T12:15:00.208Z,3.65
2018-01-21T12:16:00.192Z,3.70
2018-01-21T12:17:00.164Z,3.73
2018-01-21T12:18:00.142Z,3.68
2018-01-21T12:19:00.122Z,3.73
2018-01-21T12:20:00.091Z,3.70
2018-01-21T12:21:00.076Z,3.75
2018-01-21T12:22:00.047Z,3.75
2018-01-21T12:23:00.074Z,3.73
2018-01-21T12:24:00.012Z,3.69
2018-01-21T12:24:59.988Z,3.78
2018-01-21T12:26:00.022Z,3.75
2018-01-21T12:26:59.986Z,3.78
2018-01-21T12:27:59.921Z,3.87
2018-01-21T12:28:59.891Z,3.91
2018-01-21T12:29:59.873Z,3.83
2018-01-21T12:30:59.856Z,3.90
2018-01-21T12:31:59.828Z,3.90
2018-01-21T12:32:59.812Z,3.98
2018-01-21T12:33:59.784Z,4.00
2018-01-21T12:34:59.765Z,4.02
2018-01-21T12:35:59.734Z,4.05
2018-01-21T12:36:59.715Z,4.04
2018-01-21T12:37:59.695Z,4.00
2018-01-21T12:38:59.672Z,4.04
2018-01-21T12:39:59.652Z,4.08
2018-01-21T12:40:59.629Z,3.98
2018-01-21T12:41:59.609Z,3.93
2018-01-21T12:42:59.582Z,3.98
2018-01-21T12:43:59.556Z,4.00
2018-01-21T12:44:59.535Z,3.98
2018-01-21T12:45:59.518Z,4.00
2018-01-21T12:46:59.504Z,4.02
2018-01-21T12:47:59.468Z,4.06
2018-01-21T12:48:59.444Z,3.94
2018-01-21T12:49:59.429Z,4.02
2018-01-21T12:50:59.407Z,3.91
2018-01-21T12:51:59.385Z,3.88
2018-01-21T12:52:59.370Z,3.93
2018-01-21T12:53:59.336Z,4.02
2018-01-21T12:54:59.315Z,3.98
2018-01-21T12:55:59.288Z,3.94
2018-01-21T12:56:59.264Z,3.96
2018-01-21T12:57:59.245Z,3.86
2018-01-21T12:58:59.224Z,3.90
2018-01-21T12:59:59.202Z,3.91
2018-01-21T13:00:59.180Z,3.96
2018-01-21T13:01:59.154Z,3.84
2018-01-21T13:02:59.136Z,3.84
2018-01-21T13:03:59.112Z,3.84
2018-01-21T13:04:59.092Z,3.90
2018-01-21T13:05:59.066Z,3.88
2018-01-21T13:06:59.052Z,3.88
2018-01-21T13:07:59.030Z,3.84
2018-01-21T13:08:59.007Z,3.88
2018-01-21T13:09:58.989Z,3.91
2018-01-21T13:10:58.960Z,3.86
2018-01-21T13:11:58.952Z,3.94
2018-01-21T13:12:58.911Z,3.98
2018-01-21T13:13:58.884Z,4.02
2018-01-21T13:14:58.865Z,4.04
2018-01-21T13:15:58.844Z,4.04
2018-01-21T13:16:58.823Z,4.00
2018-01-21T13:17:58.803Z,4.04